Cullowhee, NC (28723)

12:14 AM EDT on June 30, 2015 (GMT -0400)
Cullowhee | | Change Station
CLOSE
Current Station
Personal Weather Station
Location: Cullowhee, NC
Elevation: 2359 ft
Nearby Weather Stations

Elev 2359 ft 35.30 °N, 83.16 °W | Updated 43 seconds ago

Partly Cloudy
Partly Cloudy
66.8 °F
Feels Like 66.8 °F
N
0.0
Wind Variable Wind from SSE
Gusts 0.0 mph

Today
High -- | Low -- °F
--% Chance of Precip.
Yesterday
High -- | Low -- °F
Precip. -- in
6:21 AM 8:51 PM
Waxing Gibbous, 96% visible
Pressure 29.96 in
Visibility 10.0 miles
Clouds Mostly Cloudy 6000 ft
Overcast 12000 ft
Dew Point 63 °F
Humidity 88%
Rainfall 0.00 in
Snow Depth Not available.
UV 0 out of 12
Pollen 3.10 out of 12
Air Quality Not available.
Flu Activity No Activity
METAR KAVL 300154Z 16004KT 10SM BKN060 OVC120 22/16 A3004 RMK AO2 SLP146 T02220161

More Conditions Fewer Conditions

Pressure 29.96 in
Visibility 10.0 miles
Clouds Mostly Cloudy 6000 ft
Overcast 12000 ft
Dew Point 63 °F
Humidity 88%
Rainfall 0.00 in
Snow Depth Not available.
UV 0 out of 12
Pollen 3.10 out of 12
Air Quality Not available.
Flu Activity No Activity
METAR KAVL 300154Z 16004KT 10SM BKN060 OVC120 22/16 A3004 RMK AO2 SLP146 T02220161

More Conditions Fewer Conditions

10-Day Weather Forecast

×

Almanac

Astronomy

Jun. 30, 2015 Rise Set
Actual Time
Civil Twilight
Nautical Twilight
Astronomical Twilight
Moon
Length of Visible Light
Length of Day
Tomorrow will be .
, % of the Moon is Illuminated

Today's Extremes

State Highs State Lows

Community

WunderPhotos

Upload Photos

1,833,960 photos uploaded!

WunderBlogs® & News

Nearby

Air Quality

  Air Quality AQ Index Pollutant
Not available.

Snow Depth

Station Depth Elevation

Earthquake Activity

City Distance Mag. Time & Date
Minimum magnitude displayed is 2.5.

Coastal Water Temperatures

Place Temperature

Stations

Nearby Weather Stations

Station Location Temp. Windchill Dew Point Humidity Wind Precip. Elev Updated Type